createdAt,value
2017-09-07T00:00:15.690Z,117991.54
2017-09-07T00:02:43.603Z,117991.54
2017-09-07T00:05:11.580Z,117991.54
2017-09-07T00:07:39.505Z,117991.54
2017-09-07T00:10:07.570Z,117991.54
2017-09-07T00:12:35.569Z,117991.54
2017-09-07T00:15:03.595Z,117991.54
2017-09-07T00:17:31.536Z,117991.54
2017-09-07T00:19:59.448Z,117991.54
2017-09-07T00:22:54.261Z,100412.05
2017-09-07T00:25:22.162Z,100412.52
2017-09-07T00:27:50.102Z,100415.63
2017-09-07T00:30:18.040Z,100409.50
2017-09-07T00:32:45.953Z,100414.77
2017-09-07T00:35:13.847Z,100416.08
2017-09-07T00:37:41.884Z,100414.33
2017-09-07T00:40:09.793Z,100414.77
2017-09-07T00:42:37.698Z,100411.71
2017-09-07T00:45:05.736Z,100416.52
2017-09-07T00:47:33.638Z,100405.64
2017-09-07T00:50:01.600Z,100408.71
2017-09-07T00:52:29.563Z,100412.21
2017-09-07T00:54:58.046Z,100399.97
2017-09-07T00:57:25.960Z,100398.66
2017-09-07T00:59:53.900Z,100402.59
2017-09-07T01:02:21.873Z,100404.36
2017-09-07T01:04:49.793Z,100406.11
2017-09-07T01:07:17.762Z,100405.72
2017-09-07T01:09:45.655Z,100402.22
2017-09-07T01:12:13.619Z,100391.30
2017-09-07T01:14:41.565Z,100394.80
2017-09-07T01:17:09.459Z,100399.18
2017-09-07T01:19:37.430Z,100389.57
2017-09-07T01:22:05.354Z,100393.98
2017-09-07T01:24:33.319Z,100396.17
2017-09-07T01:27:01.355Z,100397.93
2017-09-07T01:29:29.276Z,100389.23
2017-09-07T01:31:57.279Z,100397.97
2017-09-07T01:34:25.620Z,100399.28
2017-09-07T01:36:53.623Z,100390.95
2017-09-07T01:39:21.543Z,100385.31
2017-09-07T01:41:49.444Z,100384.45
2017-09-07T01:44:17.355Z,100390.56
2017-09-07T01:46:45.254Z,100397.98
2017-09-07T01:49:13.155Z,100398.45
2017-09-07T01:51:41.075Z,100404.53
2017-09-07T01:54:08.991Z,100410.65
2017-09-07T01:56:36.899Z,100406.75
2017-09-07T01:59:04.830Z,100403.25
2017-09-07T02:01:32.803Z,100408.05
2017-09-07T02:04:00.770Z,100413.33
2017-09-07T02:06:28.693Z,100413.76
2017-09-07T02:08:56.803Z,100417.69
2017-09-07T02:11:24.699Z,100419.42
2017-09-07T02:13:52.615Z,100413.31
2017-09-07T02:16:20.520Z,100414.19
2017-09-07T02:18:48.484Z,100409.82
2017-09-07T02:21:16.451Z,100404.58
2017-09-07T02:23:44.356Z,100409.41
2017-09-07T02:26:12.259Z,100409.81
2017-09-07T02:28:40.171Z,100406.33
2017-09-07T02:31:08.149Z,100405.47
2017-09-07T02:33:36.200Z,100412.45
2017-09-07T02:36:04.123Z,100412.02
2017-09-07T02:38:32.023Z,100415.07
2017-09-07T02:40:59.924Z,100415.50
2017-09-07T02:43:27.835Z,100413.76
2017-09-07T02:45:55.875Z,100415.50
2017-09-07T02:48:23.775Z,100416.37
2017-09-07T02:50:51.953Z,100407.23
2017-09-07T02:53:19.859Z,100418.58
2017-09-07T02:55:47.752Z,100408.51
2017-09-07T02:58:15.677Z,100411.16
2017-09-07T03:00:43.576Z,100421.17
2017-09-07T03:03:11.470Z,100412.91
2017-09-07T03:05:39.390Z,100408.09
2017-09-07T03:08:07.306Z,100411.14
2017-09-07T03:10:35.292Z,100405.05
2017-09-07T03:13:03.215Z,100405.48
2017-09-07T03:15:31.170Z,100405.92
2017-09-07T03:17:59.070Z,100411.16
2017-09-07T03:20:26.999Z,100404.61
2017-09-07T03:22:54.917Z,100406.80
2017-09-07T03:25:22.814Z,100405.91
2017-09-07T03:27:50.795Z,100404.59
2017-09-07T03:30:18.764Z,100401.98
2017-09-07T03:32:46.687Z,100409.40
2017-09-07T03:35:14.598Z,100408.52
2017-09-07T03:37:42.497Z,100408.53
2017-09-07T03:40:10.425Z,100408.98
2017-09-07T03:42:38.394Z,100409.83
2017-09-07T03:45:06.295Z,100412.45
2017-09-07T03:47:34.230Z,100409.39
2017-09-07T03:50:02.163Z,100407.67
2017-09-07T03:52:30.165Z,100408.10
2017-09-07T03:54:58.071Z,100414.21
2017-09-07T03:57:26.004Z,100414.20
2017-09-07T03:59:53.975Z,100411.58
2017-09-07T04:02:21.949Z,100409.39
2017-09-07T04:04:49.903Z,100412.45
2017-09-07T04:07:17.840Z,100412.02
2017-09-07T04:09:45.849Z,100418.54
2017-09-07T04:12:13.777Z,100415.51
2017-09-07T04:14:41.677Z,100426.83
2017-09-07T04:17:09.570Z,100416.36
2017-09-07T04:19:37.498Z,100420.31
2017-09-07T04:22:05.386Z,100422.92
2017-09-07T04:24:33.316Z,100419.86
2017-09-07T04:27:01.252Z,100420.73
2017-09-07T04:29:29.159Z,100418.10
2017-09-07T04:31:57.154Z,100408.95
2017-09-07T04:34:25.123Z,100411.16
2017-09-07T04:36:53.029Z,100412.90
2017-09-07T04:39:20.935Z,100415.95
2017-09-07T04:41:48.938Z,100419.00
2017-09-07T04:44:16.903Z,100422.06
2017-09-07T04:46:45.267Z,100421.20
2017-09-07T04:49:13.189Z,100421.62
2017-09-07T04:51:41.086Z,100429.05
2017-09-07T04:54:09.013Z,100422.92
2017-09-07T04:56:37.723Z,100433.84
2017-09-07T04:59:05.620Z,100430.36
2017-09-07T05:01:33.535Z,100436.02
2017-09-07T05:04:01.843Z,100445.20
2017-09-07T05:06:29.767Z,100436.46
2017-09-07T05:08:57.677Z,100440.80
2017-09-07T05:11:25.640Z,100443.84
2017-09-07T05:13:53.536Z,100435.10
2017-09-07T05:16:21.441Z,100445.06
2017-09-07T05:18:49.374Z,100441.07
2017-09-07T05:21:17.274Z,100441.88
2017-09-07T05:23:45.206Z,100430.50
2017-09-07T05:26:13.187Z,100433.06
2017-09-07T05:28:41.092Z,100439.59
2017-09-07T05:31:08.984Z,100428.59
2017-09-07T05:33:36.914Z,100438.27
2017-09-07T05:36:04.853Z,100438.31
2017-09-07T05:38:32.784Z,100445.73
2017-09-07T05:41:00.794Z,100445.31
2017-09-07T05:43:28.705Z,100427.78
2017-09-07T05:45:56.594Z,100434.69
2017-09-07T05:48:24.591Z,100441.20
2017-09-07T05:50:52.496Z,100442.50
2017-09-07T05:53:20.426Z,100444.77
2017-09-07T05:55:48.400Z,100451.34
2017-09-07T05:58:16.312Z,100453.54
2017-09-07T06:00:44.229Z,100453.94
2017-09-07T06:03:12.143Z,100451.84
2017-09-07T06:05:40.034Z,100453.10
2017-09-07T06:08:07.999Z,100454.42
2017-09-07T06:10:36.398Z,100459.64
2017-09-07T06:13:04.382Z,100465.35
2017-09-07T06:15:32.287Z,100454.47
2017-09-07T06:18:00.211Z,100455.70
2017-09-07T06:20:28.195Z,100471.81
2017-09-07T06:22:56.101Z,100460.30
2017-09-07T06:25:24.027Z,100467.55
2017-09-07T06:27:51.937Z,100472.73
2017-09-07T06:30:20.227Z,100458.64
2017-09-07T06:32:48.239Z,100459.56
2017-09-07T06:35:16.130Z,100463.60
2017-09-07T06:37:44.034Z,100460.15
2017-09-07T06:40:11.968Z,100464.53
2017-09-07T06:42:39.911Z,100460.55
2017-09-07T06:45:07.817Z,100463.61
2017-09-07T06:47:35.960Z,100463.19
2017-09-07T06:50:03.859Z,100453.14
2017-09-07T06:52:31.792Z,100457.47
2017-09-07T06:54:59.702Z,100449.65
2017-09-07T06:57:27.633Z,100459.98
2017-09-07T06:59:55.531Z,100461.44
2017-09-07T07:02:23.467Z,100462.34
2017-09-07T07:04:51.371Z,100455.15
2017-09-07T07:07:19.288Z,100463.95
2017-09-07T07:09:47.225Z,100459.45
2017-09-07T07:12:15.123Z,100466.31
2017-09-07T07:14:43.014Z,100448.69
2017-09-07T07:17:10.992Z,100461.91
2017-09-07T07:19:39.283Z,100450.64
2017-09-07T07:22:07.268Z,100451.75
2017-09-07T07:24:35.194Z,100459.30
2017-09-07T07:27:03.241Z,100461.84
2017-09-07T07:29:31.172Z,100465.50
2017-09-07T07:31:59.095Z,100461.61
2017-09-07T07:34:26.997Z,100464.02
2017-09-07T07:36:54.900Z,100463.66
2017-09-07T07:39:22.888Z,100463.03
2017-09-07T07:41:50.865Z,100452.14
2017-09-07T07:44:18.824Z,100460.20
2017-09-07T07:46:46.788Z,100463.70
2017-09-07T07:49:14.859Z,100458.55
2017-09-07T07:51:42.835Z,100463.95
2017-09-07T07:54:10.761Z,100458.08
2017-09-07T07:56:38.767Z,100458.33
2017-09-07T07:59:06.719Z,100457.48
2017-09-07T08:01:34.659Z,100459.20
2017-09-07T08:04:02.559Z,100461.27
2017-09-07T08:06:30.458Z,100463.52
2017-09-07T08:08:58.379Z,100457.97
2017-09-07T08:11:26.334Z,100456.33
2017-09-07T08:13:54.232Z,100464.42
2017-09-07T08:16:22.146Z,100463.52
2017-09-07T08:18:50.054Z,100473.89
2017-09-07T08:21:17.950Z,100465.39
2017-09-07T08:23:45.903Z,100459.91
2017-09-07T08:26:13.806Z,100466.05
2017-09-07T08:28:41.714Z,100470.64
2017-09-07T08:31:09.635Z,100460.30
2017-09-07T08:33:37.574Z,100458.06
2017-09-07T08:36:05.474Z,100452.66
2017-09-07T08:38:33.395Z,100456.34
2017-09-07T08:41:01.395Z,100457.55
2017-09-07T08:43:29.290Z,100475.89
2017-09-07T08:45:57.219Z,100477.87
2017-09-07T08:48:25.140Z,100465.67
2017-09-07T08:50:53.044Z,100468.59
2017-09-07T08:53:20.968Z,100474.08
2017-09-07T08:55:48.883Z,100464.88
2017-09-07T08:58:16.803Z,100474.61
2017-09-07T09:00:44.777Z,100471.84
2017-09-07T09:03:12.688Z,100476.78
2017-09-07T09:05:40.592Z,100475.83
2017-09-07T09:08:08.698Z,100478.09
2017-09-07T09:10:36.701Z,100474.75
2017-09-07T09:13:04.607Z,100471.78
2017-09-07T09:15:32.518Z,100464.55
2017-09-07T09:18:00.507Z,100466.77
2017-09-07T09:20:28.410Z,100478.07
2017-09-07T09:22:56.728Z,100464.02
2017-09-07T09:25:24.819Z,100472.01
2017-09-07T09:27:52.710Z,100466.16
2017-09-07T09:30:20.662Z,100475.72
2017-09-07T09:32:48.559Z,100458.11
2017-09-07T09:35:16.455Z,100459.09
2017-09-07T09:37:44.378Z,100455.53
2017-09-07T09:40:12.328Z,100461.20
2017-09-07T09:42:40.292Z,100452.94
2017-09-07T09:45:08.264Z,100455.68
2017-09-07T09:47:36.172Z,100456.89
2017-09-07T09:50:04.067Z,100466.09
2017-09-07T09:52:32.063Z,100459.05
2017-09-07T09:55:00.035Z,100458.55
2017-09-07T09:57:27.963Z,100456.50
2017-09-07T09:59:55.899Z,100454.88
2017-09-07T10:02:23.791Z,100443.36
2017-09-07T10:04:51.707Z,100454.84
2017-09-07T10:07:19.631Z,100451.66
2017-09-07T10:09:47.880Z,100444.56
2017-09-07T10:12:15.823Z,100445.80
2017-09-07T10:14:43.787Z,100445.84
2017-09-07T10:17:11.686Z,100437.45
2017-09-07T10:19:39.586Z,100427.74
2017-09-07T10:22:07.507Z,100438.35
2017-09-07T10:24:35.408Z,100445.68
2017-09-07T10:27:03.440Z,100444.11
2017-09-07T10:29:31.990Z,100457.19
2017-09-07T10:31:59.979Z,100456.04
2017-09-07T10:34:27.948Z,100468.25
2017-09-07T10:36:55.908Z,100457.73
2017-09-07T10:39:23.878Z,100457.69
2017-09-07T10:41:51.776Z,100458.12
2017-09-07T10:44:19.704Z,100441.89
2017-09-07T10:46:48.301Z,100441.00
2017-09-07T10:49:16.279Z,100438.62
2017-09-07T10:51:44.195Z,100436.09
2017-09-07T10:54:12.092Z,100438.14
2017-09-07T10:56:40.065Z,100441.47
2017-09-07T10:59:08.002Z,100448.48
2017-09-07T11:01:35.919Z,100449.40
2017-09-07T11:04:03.818Z,100452.32
2017-09-07T11:06:31.756Z,100449.80
2017-09-07T11:08:59.654Z,100449.55
2017-09-07T11:11:27.547Z,100454.36
2017-09-07T11:13:55.472Z,100445.55
2017-09-07T11:16:23.374Z,100445.98
2017-09-07T11:18:51.282Z,100443.98
2017-09-07T11:21:19.214Z,100449.64
2017-09-07T11:23:47.115Z,100454.09
2017-09-07T11:26:15.043Z,100448.64
2017-09-07T11:28:43.047Z,100449.22
2017-09-07T11:31:10.982Z,100451.16
2017-09-07T11:33:38.995Z,100450.77
2017-09-07T11:36:06.975Z,100451.48
2017-09-07T11:38:35.519Z,100456.02
2017-09-07T11:41:03.502Z,100473.98
2017-09-07T11:43:31.427Z,100473.35
2017-09-07T11:45:59.327Z,100473.31
2017-09-07T11:48:27.223Z,100478.47
2017-09-07T11:50:55.150Z,100475.15
2017-09-07T11:53:23.051Z,100468.67
2017-09-07T11:55:50.978Z,100469.15
2017-09-07T11:58:18.890Z,100475.90
2017-09-07T12:00:46.803Z,100464.80
2017-09-07T12:03:14.710Z,100470.38
2017-09-07T12:05:42.683Z,100464.67
2017-09-07T12:08:10.654Z,100467.45
2017-09-07T12:10:38.620Z,100465.84
2017-09-07T12:13:06.655Z,100471.12
2017-09-07T12:15:34.560Z,100476.11
2017-09-07T12:18:02.460Z,100464.43
2017-09-07T12:20:30.370Z,100481.66
2017-09-07T12:22:58.278Z,100470.42
2017-09-07T12:25:26.272Z,100468.33
2017-09-07T12:27:54.194Z,100467.94
2017-09-07T12:30:22.167Z,100475.40
2017-09-07T12:32:50.096Z,100465.61
2017-09-07T12:35:18.108Z,100458.70
2017-09-07T12:37:46.080Z,100479.92
2017-09-07T12:40:13.980Z,100478.77
2017-09-07T12:42:41.896Z,100473.92
2017-09-07T12:45:09.815Z,100481.41
2017-09-07T12:47:37.730Z,100487.39
2017-09-07T12:50:05.643Z,100485.08
2017-09-07T12:52:33.589Z,100484.69
2017-09-07T12:55:01.496Z,100481.48
2017-09-07T12:57:29.427Z,100479.35
2017-09-07T12:59:58.203Z,100476.98
2017-09-07T13:02:26.099Z,100475.38
2017-09-07T13:04:54.016Z,100483.45
2017-09-07T13:07:21.920Z,100482.78
2017-09-07T13:09:49.845Z,100483.70
2017-09-07T13:12:17.762Z,100480.61
2017-09-07T13:14:45.684Z,100488.75
2017-09-07T13:17:13.582Z,100489.88
2017-09-07T13:19:41.550Z,100494.08
2017-09-07T13:22:10.118Z,100501.16
2017-09-07T13:24:38.018Z,100499.20
2017-09-07T13:27:06.340Z,100503.53
2017-09-07T13:29:34.254Z,100506.27
2017-09-07T13:32:02.207Z,100496.63
2017-09-07T13:34:30.137Z,100502.83
2017-09-07T13:36:58.143Z,100499.04
2017-09-07T13:39:26.098Z,100502.05
2017-09-07T13:41:54.071Z,100495.11
2017-09-07T13:44:22.047Z,100496.12
2017-09-07T13:46:50.011Z,100490.88
2017-09-07T13:49:17.980Z,100497.83
2017-09-07T13:51:45.967Z,100502.88
2017-09-07T13:54:13.874Z,100494.81
2017-09-07T13:56:41.892Z,100489.44
2017-09-07T13:59:09.859Z,100487.68
2017-09-07T14:01:37.823Z,100483.36
2017-09-07T14:04:05.744Z,100477.52
2017-09-07T14:06:33.728Z,100481.64
2017-09-07T14:09:01.628Z,100469.10
2017-09-07T14:11:29.557Z,100472.71
2017-09-07T14:13:57.454Z,100463.03
2017-09-07T14:16:25.359Z,100474.44
2017-09-07T14:18:53.288Z,100458.41
2017-09-07T14:21:21.272Z,100456.36
2017-09-07T14:23:49.171Z,100455.14
2017-09-07T14:26:17.105Z,100458.30
2017-09-07T14:28:45.006Z,100452.52
2017-09-07T14:31:12.900Z,100455.74
2017-09-07T14:33:40.872Z,100467.73
2017-09-07T14:36:08.840Z,100462.88
2017-09-07T14:38:36.787Z,100467.37
2017-09-07T14:41:04.721Z,100466.77
2017-09-07T14:43:32.649Z,100466.47
2017-09-07T14:46:00.551Z,100470.18
2017-09-07T14:48:28.467Z,100465.98
2017-09-07T14:50:56.372Z,100450.50
2017-09-07T14:53:24.269Z,100458.78
2017-09-07T14:55:52.185Z,100457.17
2017-09-07T14:58:20.079Z,100464.22
2017-09-07T15:00:48.013Z,100461.20
2017-09-07T15:03:15.950Z,100464.95
2017-09-07T15:05:43.855Z,100467.84
2017-09-07T15:08:11.755Z,100461.46
2017-09-07T15:10:39.724Z,100457.03
2017-09-07T15:13:07.628Z,100466.88
2017-09-07T15:15:35.529Z,100464.61
2017-09-07T15:18:03.457Z,100467.95
2017-09-07T15:20:31.367Z,100474.90
2017-09-07T15:22:59.361Z,100474.78
2017-09-07T15:25:27.328Z,100483.77
2017-09-07T15:27:55.230Z,100477.70
2017-09-07T15:30:23.543Z,100475.38
2017-09-07T15:32:51.464Z,100482.37
2017-09-07T15:35:19.358Z,100480.28
2017-09-07T15:37:47.259Z,100472.97
2017-09-07T15:40:15.242Z,100475.31
2017-09-07T15:42:43.149Z,100481.32
2017-09-07T15:45:11.055Z,100475.80
2017-09-07T15:47:39.051Z,100483.74
2017-09-07T15:50:06.952Z,100476.41
2017-09-07T15:52:34.883Z,100472.86
2017-09-07T15:55:02.858Z,100479.10
2017-09-07T15:57:30.763Z,100477.27
2017-09-07T15:59:58.680Z,100477.80
2017-09-07T16:02:26.595Z,100469.99
2017-09-07T16:04:54.491Z,100483.05
2017-09-07T16:07:22.492Z,100473.34
2017-09-07T16:09:50.429Z,100475.13
2017-09-07T16:12:18.458Z,100469.95
2017-09-07T16:14:46.360Z,100464.76
2017-09-07T16:17:14.273Z,100470.07
2017-09-07T16:19:42.179Z,100474.36
2017-09-07T16:22:10.100Z,100475.45
2017-09-07T16:24:38.033Z,100469.47
2017-09-07T16:27:06.041Z,100474.50
2017-09-07T16:29:34.006Z,100473.53
2017-09-07T16:32:01.971Z,100467.11
2017-09-07T16:34:29.941Z,100471.15
2017-09-07T16:36:57.874Z,100472.11
2017-09-07T16:39:25.878Z,100476.94
2017-09-07T16:41:53.780Z,100480.86
2017-09-07T16:44:21.688Z,100477.43
2017-09-07T16:46:49.602Z,100481.91
2017-09-07T16:49:17.512Z,100487.63
2017-09-07T16:51:45.406Z,100490.84
2017-09-07T16:54:13.327Z,100493.05
2017-09-07T16:56:41.243Z,100497.71
2017-09-07T16:59:09.140Z,100503.41
2017-09-07T17:01:37.054Z,100497.92
2017-09-07T17:04:04.947Z,100503.58
2017-09-07T17:06:32.848Z,100502.41
2017-09-07T17:09:00.772Z,100504.95
2017-09-07T17:11:28.760Z,100498.92
2017-09-07T17:13:56.685Z,100504.72
2017-09-07T17:16:24.694Z,100500.81
2017-09-07T17:18:52.623Z,100500.78
2017-09-07T17:21:20.551Z,100510.02
2017-09-07T17:23:48.549Z,100505.53
2017-09-07T17:26:16.474Z,100504.70
2017-09-07T17:28:44.372Z,100503.38
2017-09-07T17:31:12.293Z,100497.29
2017-09-07T17:33:40.207Z,100498.23
2017-09-07T17:36:08.116Z,100504.77
2017-09-07T17:38:36.034Z,100501.44
2017-09-07T17:41:03.956Z,100498.92
2017-09-07T17:43:31.851Z,100502.49
2017-09-07T17:45:59.775Z,100504.31
2017-09-07T17:48:27.677Z,100505.56
2017-09-07T17:50:55.576Z,100502.53
2017-09-07T17:53:23.503Z,100513.63
2017-09-07T17:55:51.413Z,100511.98
2017-09-07T17:58:19.315Z,100515.52
2017-09-07T18:00:47.318Z,100515.55
2017-09-07T18:03:15.222Z,100507.69
2017-09-07T18:05:43.127Z,100511.33
2017-09-07T18:08:11.111Z,100513.09
2017-09-07T18:10:39.022Z,100523.17
2017-09-07T18:13:06.947Z,100524.87
2017-09-07T18:15:34.893Z,100527.23
2017-09-07T18:18:02.906Z,100530.78
2017-09-07T18:20:30.799Z,100529.90
2017-09-07T18:22:58.789Z,100534.03
2017-09-07T18:25:26.685Z,100542.34
2017-09-07T18:27:54.591Z,100537.11
2017-09-07T18:30:22.511Z,100544.09
2017-09-07T18:32:50.406Z,100548.53
2017-09-07T18:35:18.307Z,100552.04
2017-09-07T18:37:46.227Z,100552.57
2017-09-07T18:40:14.136Z,100558.72
2017-09-07T18:42:42.050Z,100556.62
2017-09-07T18:45:09.975Z,100562.20
2017-09-07T18:47:37.907Z,100566.21
2017-09-07T18:50:05.870Z,100561.80
2017-09-07T18:52:33.799Z,100564.45
2017-09-07T18:55:01.694Z,100558.37
2017-09-07T18:57:29.599Z,100560.19
2017-09-07T18:59:57.519Z,100560.53
2017-09-07T19:02:25.512Z,100560.52
2017-09-07T19:04:53.407Z,100554.78
2017-09-07T19:07:21.322Z,100559.61
2017-09-07T19:09:49.275Z,100554.76
2017-09-07T19:12:17.279Z,100560.91
2017-09-07T19:14:45.241Z,100554.33
2017-09-07T19:17:13.138Z,100566.20
2017-09-07T19:19:41.035Z,100563.56
2017-09-07T19:22:08.966Z,100553.96
2017-09-07T19:24:36.867Z,100560.08
2017-09-07T19:27:04.776Z,100559.19
2017-09-07T19:29:32.699Z,100553.88
2017-09-07T19:32:00.595Z,100558.30
2017-09-07T19:34:28.493Z,100558.73
2017-09-07T19:36:56.406Z,100558.73
2017-09-07T19:39:24.315Z,100558.72
2017-09-07T19:41:52.208Z,100562.23
2017-09-07T19:44:20.126Z,100563.63
2017-09-07T19:46:48.037Z,100555.65
2017-09-07T19:49:15.930Z,100556.05
2017-09-07T19:51:43.845Z,100561.80
2017-09-07T19:54:11.734Z,100559.94
2017-09-07T19:56:39.691Z,100553.89
2017-09-07T19:59:07.677Z,100563.09
2017-09-07T20:01:35.582Z,100556.56
2017-09-07T20:04:03.532Z,100556.67
2017-09-07T20:06:31.464Z,100564.58
2017-09-07T20:08:59.372Z,100558.00
2017-09-07T20:11:27.263Z,100554.48
2017-09-07T20:13:55.266Z,100555.80
2017-09-07T20:16:23.335Z,100554.81
2017-09-07T20:18:51.231Z,100561.09
2017-09-07T20:21:19.159Z,100559.24
2017-09-07T20:23:47.051Z,100555.73
2017-09-07T20:26:15.010Z,100559.30
2017-09-07T20:28:42.984Z,100559.34
2017-09-07T20:31:10.875Z,100555.39
2017-09-07T20:33:38.807Z,100557.47
2017-09-07T20:36:06.722Z,100560.14
2017-09-07T20:38:34.648Z,100563.20
2017-09-07T20:41:02.551Z,100565.54
2017-09-07T20:43:30.859Z,100556.05
2017-09-07T20:45:58.780Z,100571.84
2017-09-07T20:48:26.827Z,100568.02
2017-09-07T20:50:54.756Z,100566.72
2017-09-07T20:53:22.656Z,100569.88
2017-09-07T20:55:50.559Z,100563.77
2017-09-07T20:58:18.498Z,100561.59
2017-09-07T21:00:46.478Z,100556.48
2017-09-07T21:03:14.400Z,100558.20
2017-09-07T21:05:42.431Z,100559.94
2017-09-07T21:08:10.365Z,100556.77
2017-09-07T21:10:38.271Z,100553.25
2017-09-07T21:13:06.192Z,100559.78
2017-09-07T21:15:34.187Z,100557.92
2017-09-07T21:18:02.084Z,100557.90
2017-09-07T21:20:29.995Z,100554.73
2017-09-07T21:22:57.895Z,100555.67
2017-09-07T21:25:25.815Z,100552.57
2017-09-07T21:27:53.784Z,100542.88
2017-09-07T21:30:21.687Z,100549.91
2017-09-07T21:32:49.583Z,100541.08
2017-09-07T21:35:17.510Z,100548.97
2017-09-07T21:37:45.779Z,100542.88
2017-09-07T21:40:13.676Z,100538.10
2017-09-07T21:42:41.634Z,100544.80
2017-09-07T21:45:09.603Z,100533.08
2017-09-07T21:47:37.883Z,100531.31
2017-09-07T21:50:05.799Z,100527.84
2017-09-07T21:52:33.707Z,100526.09
2017-09-07T21:55:01.716Z,100529.26
2017-09-07T21:57:29.635Z,100529.23
2017-09-07T21:59:57.616Z,100526.98
2017-09-07T22:02:25.551Z,100522.52
2017-09-07T22:04:53.551Z,100520.02
2017-09-07T22:07:21.454Z,100518.63
2017-09-07T22:09:49.355Z,100516.85
2017-09-07T22:12:17.271Z,100517.82
2017-09-07T22:14:45.223Z,100518.19
2017-09-07T22:17:13.127Z,100511.28
2017-09-07T22:19:41.043Z,100516.16
2017-09-07T22:22:08.944Z,100517.46
2017-09-07T22:24:36.848Z,100509.69
2017-09-07T22:27:04.759Z,100505.74
2017-09-07T22:29:32.652Z,100514.10
2017-09-07T22:32:00.587Z,100508.45
2017-09-07T22:34:28.562Z,100513.21
2017-09-07T22:36:56.461Z,100507.06
2017-09-07T22:39:24.403Z,100501.48
2017-09-07T22:41:52.335Z,100511.97
2017-09-07T22:44:20.235Z,100505.44
2017-09-07T22:46:48.206Z,100498.91
2017-09-07T22:49:16.167Z,100500.19
2017-09-07T22:51:44.077Z,100503.77
2017-09-07T22:54:12.007Z,100497.21
2017-09-07T22:56:39.922Z,100498.52
2017-09-07T22:59:07.835Z,100496.33
2017-09-07T23:01:35.730Z,100495.41
2017-09-07T23:04:03.675Z,100499.41
2017-09-07T23:06:31.755Z,100499.45
2017-09-07T23:08:59.646Z,100500.34
2017-09-07T23:11:27.568Z,100500.75
2017-09-07T23:13:55.471Z,100500.72
2017-09-07T23:16:23.379Z,100498.02
2017-09-07T23:18:51.291Z,100493.64
2017-09-07T23:21:19.247Z,100492.31
2017-09-07T23:23:47.143Z,100500.66
2017-09-07T23:26:15.067Z,100499.83
2017-09-07T23:28:43.059Z,100500.64
2017-09-07T23:31:11.027Z,100499.77
2017-09-07T23:33:39.003Z,100498.13
2017-09-07T23:36:06.959Z,100501.19
2017-09-07T23:38:34.863Z,100496.03
2017-09-07T23:41:02.791Z,100493.06
2017-09-07T23:43:30.767Z,100490.08
2017-09-07T23:45:58.674Z,100487.03
2017-09-07T23:48:26.592Z,100491.05
2017-09-07T23:50:54.487Z,100481.96
2017-09-07T23:53:22.392Z,100486.84
2017-09-07T23:55:50.303Z,100478.59
2017-09-07T23:58:18.212Z,100480.36
